Time;durP1;ratioP1;P1;durP2;ratioP2;P2;SDS_P1;SDS_P2;PMS_P1;PMS_P2;Temp;Humidity;BMP_temperature;BMP_pressure;BME280_temperature;BME280_humidity;BME280_pressure;Samples;Min_cycle;Max_cycle;Signal;HPM_P1;HPM_P2
2022/10/05 00:00:24;;;;;;;1999.90;999.90;;;16.90;1.00;;;;;;5036380;28;20053;-81
2022/10/05 00:02:54;;;;;;;1999.90;999.90;;;16.90;1.00;;;;;;5053174;28;20408;-81
2022/10/05 00:05:26;;;;;;;1999.90;999.90;;;16.90;1.00;;;;;;5019238;28;20138;-81
2022/10/05 00:07:55;;;;;;;1999.90;999.90;;;16.90;1.00;;;;;;5053039;28;20589;-80
2022/10/05 00:10:21;;;;;;;1999.90;999.90;;;16.90;1.00;;;;;;5069536;28;20045;-80
2022/10/05 00:12:47;;;;;;;1999.90;999.90;;;16.90;1.00;;;;;;5024459;28;20068;-79
2022/10/05 00:15:16;;;;;;;1999.90;999.90;;;16.90;1.00;;;;;;5013788;28;20058;-80
2022/10/05 00:17:41;;;;;;;1999.90;999.90;;;16.80;1.00;;;;;;5013269;28;20060;-79
2022/10/05 00:20:22;;;;;;;1999.90;999.90;;;16.90;1.00;;;;;;5013640;28;20046;-81
2022/10/05 00:22:54;;;;;;;1999.90;999.90;;;16.80;1.00;;;;;;5012731;28;20128;-80
2022/10/05 00:25:21;;;;;;;1999.90;999.90;;;16.80;1.00;;;;;;5027818;28;20492;-80
2022/10/05 00:27:57;;;;;;;1999.90;999.90;;;16.80;1.00;;;;;;5027984;28;20049;-80
2022/10/05 00:30:25;;;;;;;1999.90;999.90;;;16.80;1.00;;;;;;5013460;28;20054;-81
2022/10/05 00:32:51;;;;;;;1999.90;999.90;;;16.80;1.00;;;;;;5027688;28;20049;-80
2022/10/05 00:35:18;;;;;;;1999.90;999.90;;;16.80;1.00;;;;;;5012211;28;20061;-82
2022/10/05 00:37:45;;;;;;;1999.90;999.90;;;16.80;1.00;;;;;;5011661;28;20088;-81
2022/10/05 00:40:25;;;;;;;1999.90;999.90;;;16.80;1.00;;;;;;4995829;28;20115;-80
2022/10/05 00:43:10;;;;;;;1999.90;999.90;;;16.80;1.00;;;;;;5012258;28;20081;-79
2022/10/05 00:45:45;;;;;;;1999.90;999.90;;;16.80;1.00;;;;;;5013399;28;20049;-80
2022/10/05 00:48:16;;;;;;;1999.90;999.90;;;16.80;1.00;;;;;;5011554;28;20053;-79
2022/10/05 00:51:01;;;;;;;1999.90;999.90;;;16.80;1.00;;;;;;5011404;28;20521;-80
2022/10/05 00:53:44;;;;;;;1999.90;999.90;;;16.80;1.00;;;;;;5012823;28;20052;-80
2022/10/05 00:56:16;;;;;;;1999.90;999.90;;;16.80;1.00;;;;;;5012112;28;20056;-81
2022/10/05 00:58:53;;;;;;;1999.90;999.90;;;16.80;1.00;;;;;;5012157;28;20037;-81
2022/10/05 01:01:39;;;;;;;1999.90;999.90;;;16.80;1.00;;;;;;5013142;28;20050;-80
2022/10/05 01:04:20;;;;;;;1999.90;999.90;;;16.80;1.00;;;;;;5012883;28;20056;-81
2022/10/05 01:07:12;;;;;;;1999.90;999.90;;;16.80;1.00;;;;;;5012195;28;20053;-81
2022/10/05 01:09:48;;;;;;;1999.90;999.90;;;16.80;1.00;;;;;;5011825;28;20050;-80
2022/10/05 01:12:40;;;;;;;1999.90;999.90;;;16.90;1.00;;;;;;5033281;28;20514;-78
2022/10/05 01:15:28;;;;;;;1999.90;999.90;;;16.90;1.00;;;;;;5041625;28;20355;-79
2022/10/05 01:18:09;;;;;;;1999.90;999.90;;;16.90;1.00;;;;;;5051669;28;20067;-80
2022/10/05 01:20:38;;;;;;;1999.90;999.90;;;16.90;99.90;;;;;;5067553;28;20080;-79
2022/10/05 01:23:26;;;;;;;1999.90;999.90;;;16.90;99.90;;;;;;5052224;28;20041;-80
2022/10/05 01:26:33;;;;;;;1999.90;999.90;;;16.90;99.90;;;;;;5049974;28;20409;-81
2022/10/05 01:29:23;;;;;;;1999.90;999.90;;;17.00;99.90;;;;;;5052118;28;20275;-81
2022/10/05 01:32:05;;;;;;;1999.90;999.90;;;16.90;99.90;;;;;;5067840;28;20049;-79
2022/10/05 01:34:41;;;;;;;1999.90;999.90;;;16.90;1.00;;;;;;5052204;28;20620;-80
2022/10/05 01:37:17;;;;;;;1999.90;999.90;;;16.80;1.00;;;;;;5018218;28;20049;-80
2022/10/05 01:39:48;;;;;;;1999.90;999.90;;;16.80;1.00;;;;;;5052261;28;20051;-79
2022/10/05 01:42:55;;;;;;;1999.90;999.90;;;16.80;1.00;;;;;;5052100;28;20048;-80
2022/10/05 01:45:20;;;;;;;1999.90;999.90;;;16.80;1.00;;;;;;5029970;28;20049;-80
2022/10/05 01:48:13;;;;;;;1999.90;999.90;;;16.80;1.00;;;;;;5029034;28;20056;-80
2022/10/05 01:50:53;;;;;;;1999.90;999.90;;;16.80;1.00;;;;;;5043425;28;20060;-80
2022/10/05 01:53:43;;;;;;;1999.90;999.90;;;16.80;1.00;;;;;;5071084;28;20131;-81
2022/10/05 01:56:30;;;;;;;1999.90;999.90;;;16.80;1.00;;;;;;5071695;28;20520;-80
2022/10/05 01:59:18;;;;;;;1999.90;999.90;;;16.70;1.00;;;;;;5071397;28;20451;-79
2022/10/05 02:01:53;;;;;;;1999.90;999.90;;;16.80;1.00;;;;;;5056092;28;20087;-78
2022/10/05 02:04:40;;;;;;;1999.90;999.90;;;16.80;1.00;;;;;;5072083;28;20045;-79
2022/10/05 02:07:15;;;;;;;1999.90;999.90;;;16.80;1.00;;;;;;5055515;28;20048;-85
2022/10/05 02:10:21;;;;;;;1999.90;999.90;;;16.80;1.00;;;;;;5022397;28;20371;-80
2022/10/05 02:12:52;;;;;;;1999.90;999.90;;;16.80;1.00;;;;;;5037048;28;20081;-83
2022/10/05 02:15:24;;;;;;;1999.90;999.90;;;16.80;1.00;;;;;;5055643;28;20049;-81
2022/10/05 02:17:56;;;;;;;1999.90;999.90;;;16.70;1.00;;;;;;5055483;28;20056;-81
2022/10/05 02:20:30;;;;;;;1999.90;999.90;;;16.70;1.00;;;;;;5054160;28;20064;-83
2022/10/05 02:23:13;;;;;;;1999.90;999.90;;;16.70;1.00;;;;;;5070881;28;20110;-79
2022/10/05 02:25:44;;;;;;;1999.90;999.90;;;16.70;1.00;;;;;;5071502;28;20370;-81
2022/10/05 02:28:20;;;;;;;1999.90;999.90;;;16.60;1.00;;;;;;5020292;28;20483;-81
2022/10/05 02:31:07;;;;;;;1999.90;999.90;;;16.60;1.00;;;;;;5071103;28;20060;-80
2022/10/05 02:33:34;;;;;;;1999.90;999.90;;;16.60;1.00;;;;;;5054892;28;20045;-81
2022/10/05 02:36:25;;;;;;;1999.90;999.90;;;16.60;1.00;;;;;;5055261;28;20044;-82
2022/10/05 02:39:31;;;;;;;1999.90;999.90;;;16.60;1.00;;;;;;5054490;28;20053;-81
2022/10/05 02:42:25;;;;;;;1999.90;999.90;;;16.60;1.00;;;;;;5031367;28;20057;-80
2022/10/05 02:45:14;;;;;;;1999.90;999.90;;;16.60;1.00;;;;;;5071030;28;20451;-82
2022/10/05 02:47:48;;;;;;;1999.90;999.90;;;16.60;1.00;;;;;;5054957;28;20413;-82
2022/10/05 02:50:25;;;;;;;1999.90;999.90;;;16.50;1.00;;;;;;5055254;28;20041;-80
2022/10/05 02:53:13;;;;;;;1999.90;999.90;;;16.50;1.00;;;;;;5037060;28;20111;-85
2022/10/05 02:56:16;;;;;;;1999.90;999.90;;;16.50;1.00;;;;;;5055461;28;20056;-81
2022/10/05 02:58:58;;;;;;;1999.90;999.90;;;16.50;1.00;;;;;;5070488;28;20135;-80
2022/10/05 03:01:30;;;;;;;1999.90;999.90;;;16.50;1.00;;;;;;5070452;28;20379;-80
2022/10/05 03:04:10;;;;;;;1999.90;999.90;;;16.50;1.00;;;;;;5036971;28;20473;-81
2022/10/05 03:07:10;;;;;;;1999.90;999.90;;;16.50;1.00;;;;;;5055126;28;20052;-80
2022/10/05 03:09:55;;;;;;;1999.90;999.90;;;16.50;1.00;;;;;;5054929;28;20045;-80
2022/10/05 03:12:50;;;;;;;1999.90;999.90;;;17.10;1.00;;;;;;5036288;28;20057;-80
2022/10/05 03:15:43;;;;;;;1999.90;999.90;;;16.50;1.00;;;;;;5036652;28;20670;-80
2022/10/05 03:18:53;;;;;;;1999.90;999.90;;;16.50;1.00;;;;;;5070107;28;20088;-80
2022/10/05 03:21:42;;;;;;;1999.90;999.90;;;16.50;1.00;;;;;;5033837;28;20061;-80
2022/10/05 03:24:27;;;;;;;1999.90;999.90;;;16.50;1.00;;;;;;5054097;28;20478;-81
2022/10/05 03:27:11;;;;;;;1999.90;999.90;;;16.50;1.00;;;;;;5054525;28;20053;-80
2022/10/05 03:29:56;;;;;;;1999.90;999.90;;;16.50;1.00;;;;;;5069695;28;20404;-79
2022/10/05 03:32:43;;;;;;;1999.90;999.90;;;16.50;1.00;;;;;;5069758;28;20396;-80
2022/10/05 03:35:27;;;;;;;1999.90;999.90;;;16.50;1.00;;;;;;5036705;28;20037;-80
2022/10/05 03:38:09;;;;;;;1999.90;999.90;;;16.50;1.00;;;;;;5087000;28;20048;-84
2022/10/05 03:41:04;;;;;;;1999.90;999.90;;;16.50;1.00;;;;;;5053445;28;20099;-80
2022/10/05 03:44:05;;;;;;;1999.90;999.90;;;16.50;1.00;;;;;;5052916;28;20037;-80
2022/10/05 03:46:36;;;;;;;1999.90;999.90;;;16.50;1.00;;;;;;5054200;28;20048;-80
2022/10/05 03:49:12;;;;;;;1999.90;999.90;;;16.70;1.00;;;;;;5051939;28;20048;-80
2022/10/05 03:51:48;;;;;;;1999.90;999.90;;;16.50;1.00;;;;;;5069403;28;20431;-80
2022/10/05 03:54:31;;;;;;;1999.90;999.90;;;16.50;1.00;;;;;;5053716;28;20060;-80
2022/10/05 03:57:05;;;;;;;1999.90;999.90;;;16.50;1.00;;;;;;5036020;28;20120;-80
2022/10/05 03:59:48;;;;;;;1999.90;999.90;;;16.50;1.00;;;;;;5053999;28;20053;-80
2022/10/05 04:02:26;;;;;;;1999.90;999.90;;;16.50;1.00;;;;;;5068826;28;20053;-80
2022/10/05 04:04:59;;;;;;;1999.90;999.90;;;16.50;1.00;;;;;;5053907;28;20049;-79
2022/10/05 04:07:38;;;;;;;1999.90;999.90;;;16.50;1.00;;;;;;5034645;28;20049;-83
2022/10/05 04:10:10;;;;;;;1999.90;999.90;;;16.50;1.00;;;;;;5034554;28;20084;-85
2022/10/05 04:12:41;;;;;;;1999.90;999.90;;;16.50;1.00;;;;;;5051043;28;20107;-80
2022/10/05 04:15:30;;;;;;;1999.90;999.90;;;16.50;1.00;;;;;;5052336;28;20088;-80
2022/10/05 04:18:02;;;;;;;1999.90;999.90;;;16.50;1.00;;;;;;5069035;28;20497;-81
2022/10/05 04:20:37;;;;;;;1999.90;999.90;;;16.50;1.00;;;;;;5054007;28;20084;-80
2022/10/05 04:23:08;;;;;;;1999.90;999.90;;;16.50;1.00;;;;;;5068665;28;20053;-81
2022/10/05 04:25:44;;;;;;;1999.90;999.90;;;16.50;1.00;;;;;;5068324;28;20098;-80
2022/10/05 04:28:15;;;;;;;1999.90;999.90;;;16.50;1.00;;;;;;5052815;28;20126;-81
2022/10/05 04:30:46;;;;;;;1999.90;999.90;;;16.50;1.00;;;;;;5052772;28;20055;-81
2022/10/05 04:33:12;;;;;;;1999.90;999.90;;;16.50;1.00;;;;;;5051549;28;20132;-81
2022/10/05 04:36:22;;;;;;;1999.90;999.90;;;16.50;1.00;;;;;;5054571;28;20045;-80
2022/10/05 04:39:40;;;;;;;1999.90;999.90;;;16.50;1.00;;;;;;5024048;28;20069;-80
2022/10/05 04:42:21;;;;;;;1999.90;999.90;;;16.50;1.00;;;;;;5013675;28;20537;-81
2022/10/05 04:45:13;;;;;;;1999.90;999.90;;;16.40;1.00;;;;;;5030353;28;20056;-79
2022/10/05 04:48:05;;;;;;;1999.90;999.90;;;16.40;1.00;;;;;;5046670;28;20211;-81
2022/10/05 04:51:09;;;;;;;1999.90;999.90;;;16.40;1.00;;;;;;5025970;28;20068;-79
2022/10/05 04:54:03;;;;;;;1999.90;999.90;;;16.40;1.00;;;;;;5052354;28;20473;-79
2022/10/05 04:56:29;;;;;;;1999.90;999.90;;;16.40;1.00;;;;;;5035074;28;20064;-81
2022/10/05 04:59:13;;;;;;;1999.90;999.90;;;16.40;1.00;;;;;;5068867;28;20051;-80
2022/10/05 05:02:00;;;;;;;1999.90;999.90;;;16.40;1.00;;;;;;5052827;28;20048;-80
2022/10/05 05:04:53;;;;;;;1999.90;999.90;;;16.40;1.00;;;;;;5053191;28;20107;-80
2022/10/05 05:07:48;;;;;;;1999.90;999.90;;;16.40;1.00;;;;;;5068275;28;20052;-80
2022/10/05 05:10:38;;;;;;;1999.90;999.90;;;16.30;1.00;;;;;;5072922;28;20053;-83
2022/10/05 05:13:24;;;;;;;1999.90;999.90;;;16.40;1.00;;;;;;5078066;28;20064;-78
2022/10/05 05:16:00;;;;;;;1999.90;999.90;;;16.40;1.00;;;;;;5067565;28;20140;-79
2022/10/05 05:19:00;;;;;;;1999.90;999.90;;;16.30;1.00;;;;;;5066178;28;20081;-79
2022/10/05 05:21:56;;;;;;;1999.90;999.90;;;16.40;1.00;;;;;;5064718;28;20048;-79
2022/10/05 05:24:32;;;;;;;1999.90;999.90;;;16.40;1.00;;;;;;5067565;28;20170;-83
2022/10/05 05:27:16;;;;;;;1999.90;999.90;;;16.40;1.00;;;;;;5050262;28;20076;-80
2022/10/05 05:29:51;;;;;;;1999.90;999.90;;;16.40;1.00;;;;;;5057399;28;20040;-81
2022/10/05 05:32:39;;;;;;;1999.90;999.90;;;16.40;1.00;;;;;;5034977;28;20067;-81
2022/10/05 05:35:21;;;;;;;1999.90;999.90;;;16.40;1.00;;;;;;5052656;28;20056;-81
2022/10/05 05:37:59;;;;;;;1999.90;999.90;;;16.40;1.00;;;;;;5035054;28;20049;-81
2022/10/05 05:40:33;;;;;;;1999.90;999.90;;;16.40;1.00;;;;;;5052568;28;20047;-81
2022/10/05 05:43:02;;;;;;;1999.90;999.90;;;16.50;1.00;;;;;;5052345;28;20044;-83
2022/10/05 05:45:41;;;;;;;1999.90;999.90;;;15.50;1.00;;;;;;5051967;28;20504;-82
2022/10/05 05:48:34;;;;;;;1999.90;999.90;;;16.40;1.00;;;;;;5051479;28;20049;-81
2022/10/05 05:51:26;;;;;;;1999.90;999.90;;;16.40;1.00;;;;;;5068138;28;20045;-81
2022/10/05 05:54:24;;;;;;;1999.90;999.90;;;16.40;1.00;;;;;;5067117;28;20048;-82
2022/10/05 05:57:13;;;;;;;1999.90;999.90;;;16.40;1.00;;;;;;5033216;28;20105;-81
2022/10/05 05:59:54;;;;;;;;;;;16.40;1.00;;;;;;5034916;28;20056;-82
2022/10/05 06:02:30;;;;;;;1999.90;999.90;;;16.40;1.00;;;;;;5067473;28;19928;-80
2022/10/05 06:05:26;;;;;;;1999.90;999.90;;;16.40;1.00;;;;;;5051577;28;20086;-82
2022/10/05 06:07:54;;;;;;;1999.90;999.90;;;16.40;1.00;;;;;;5067895;28;20119;-82
2022/10/05 06:10:37;;;;;;;1999.90;999.90;;;16.40;1.00;;;;;;5051899;28;20045;-82
2022/10/05 06:13:20;;;;;;;1999.90;999.90;;;16.40;1.00;;;;;;5033936;28;20065;-81
2022/10/05 06:15:57;;;;;;;1999.90;999.90;;;16.40;1.00;;;;;;5067475;28;20539;-82
2022/10/05 06:18:24;;;;;;;1999.90;999.90;;;16.40;1.00;;;;;;5050667;28;20535;-82
2022/10/05 06:21:12;;;;;;;1999.90;999.90;;;16.40;1.00;;;;;;5034172;28;20056;-81
2022/10/05 06:23:40;;;;;;;1999.90;999.90;;;16.40;1.00;;;;;;5067664;28;20144;-82
2022/10/05 06:26:35;;;;;;;1999.90;999.90;;;16.40;1.00;;;;;;5067940;28;20507;-81
2022/10/05 06:29:06;;;;;;;1999.90;999.90;;;16.40;1.00;;;;;;5051974;28;20131;-82
2022/10/05 06:31:47;;;;;;;1999.90;999.90;;;16.40;1.00;;;;;;5051674;28;20512;-82
2022/10/05 06:34:37;;;;;;;1999.90;999.90;;;16.40;1.00;;;;;;5067320;28;20059;-81
2022/10/05 06:37:09;;;;;;;1999.90;999.90;;;16.50;1.00;;;;;;5051435;28;20059;-83
2022/10/05 06:40:08;;;;;;;1999.90;999.90;;;16.50;1.00;;;;;;5055263;28;20049;-81
2022/10/05 06:43:03;;;;;;;1999.90;999.90;;;16.50;1.00;;;;;;5021243;28;20385;-82
2022/10/05 06:45:35;;;;;;;1999.90;999.90;;;16.50;1.00;;;;;;5070985;28;20060;-81
2022/10/05 06:48:40;;;;;;;1999.90;999.90;;;16.50;1.00;;;;;;5055306;28;20052;-81
2022/10/05 06:51:33;;;;;;;1999.90;999.90;;;16.50;1.00;;;;;;5038089;28;20460;-82
2022/10/05 06:54:17;;;;;;;1999.90;999.90;;;16.50;1.00;;;;;;5088086;28;20048;-82
2022/10/05 06:56:46;;;;;;;1999.90;999.90;;;16.50;1.00;;;;;;5070869;28;20478;-81
2022/10/05 06:59:17;;;;;;;1999.90;999.90;;;16.50;1.00;;;;;;5055397;28;20052;-81
2022/10/05 07:01:52;;;;;;;1999.90;999.90;;;16.50;1.00;;;;;;5070598;28;20056;-82
2022/10/05 07:04:44;;;;;;;1999.90;999.90;;;16.50;1.00;;;;;;5070552;28;20098;-80
2022/10/05 07:07:39;;;;;;;1999.90;999.90;;;16.50;1.00;;;;;;5071176;28;20044;-82
2022/10/05 07:10:33;;;;;;;1999.90;999.90;;;16.50;1.00;;;;;;5055146;28;20088;-84
2022/10/05 07:13:13;;;;;;;1999.90;999.90;;;16.50;1.00;;;;;;5069562;28;20049;-81
2022/10/05 07:15:41;;;;;;;1999.90;999.90;;;16.60;1.00;;;;;;5070315;28;20477;-81
2022/10/05 07:18:22;;;;;;;1999.90;999.90;;;16.60;1.00;;;;;;5055119;28;20405;-82
2022/10/05 07:21:03;;;;;;;1999.90;999.90;;;16.60;99.90;;;;;;5054764;28;20056;-82
2022/10/05 07:24:10;;;;;;;1999.90;999.90;;;16.60;1.00;;;;;;5070217;28;20052;-82
2022/10/05 07:26:44;;;;;;;1999.90;999.90;;;16.60;99.90;;;;;;5069603;28;20099;-82
2022/10/05 07:29:23;;;;;;;1999.90;999.90;;;16.60;1.00;;;;;;5037259;28;20049;-82
2022/10/05 07:32:18;;;;;;;1999.90;999.90;;;16.60;99.90;;;;;;5070515;28;20110;-82
2022/10/05 07:37:52;;;;;;;1999.90;999.90;;;16.60;99.90;;;;;;5033111;28;20052;-81
2022/10/05 07:37:56;;;;;;;;;;;16.60;99.90;;;;;;5054639;28;20049;-82
2022/10/05 07:40:44;;;;;;;1999.90;999.90;;;16.60;99.90;;;;;;5053263;28;19927;-82
2022/10/05 07:43:41;;;;;;;1999.90;999.90;;;16.60;99.90;;;;;;5054129;28;20052;-81
2022/10/05 07:46:25;;;;;;;1999.90;999.90;;;16.60;99.90;;;;;;5036577;28;20052;-82
2022/10/05 07:48:58;;;;;;;1999.90;999.90;;;16.70;99.90;;;;;;5069566;28;20486;-81
2022/10/05 07:51:43;;;;;;;1999.90;999.90;;;16.70;99.90;;;;;;5069344;28;20053;-82
2022/10/05 07:54:20;;;;;;;1999.90;999.90;;;16.70;99.90;;;;;;5052895;28;20500;-81
2022/10/05 07:57:11;;;;;;;1999.90;999.90;;;16.70;99.90;;;;;;5069223;28;20111;-81
2022/10/05 07:59:53;;;;;;;1999.90;999.90;;;16.70;99.90;;;;;;5086265;28;20084;-83
2022/10/05 08:02:28;;;;;;;1999.90;999.90;;;16.80;99.90;;;;;;5053982;28;20045;-81
2022/10/05 08:05:04;;;;;;;1999.90;999.90;;;16.90;99.90;;;;;;5053671;28;20108;-83
2022/10/05 08:07:33;;;;;;;1999.90;999.90;;;16.90;99.90;;;;;;5035941;28;20124;-81
2022/10/05 08:10:25;;;;;;;1999.90;999.90;;;17.00;99.90;;;;;;5053624;28;20045;-81
2022/10/05 08:13:11;;;;;;;1999.90;999.90;;;16.70;99.90;;;;;;5032440;28;20060;-81
2022/10/05 08:15:44;;;;;;;1999.90;999.90;;;17.10;99.90;;;;;;5053832;28;20110;-82
2022/10/05 08:18:14;;;;;;;1999.90;999.90;;;17.20;99.90;;;;;;5036013;28;20045;-82
2022/10/05 08:20:51;;;;;;;1999.90;999.90;;;17.20;99.90;;;;;;5035788;28;20401;-82
2022/10/05 08:23:29;;;;;;;1999.90;999.90;;;17.20;99.90;;;;;;5053639;28;20068;-81
2022/10/05 08:26:34;;;;;;;1999.90;999.90;;;17.30;99.90;;;;;;5069698;28;20056;-81
2022/10/05 08:29:09;;;;;;;1999.90;999.90;;;17.50;99.90;;;;;;5019550;28;20056;-82
2022/10/05 08:31:37;;;;;;;1999.90;999.90;;;17.40;99.90;;;;;;5068508;28;20509;-82
2022/10/05 08:34:45;;;;;;;1999.90;999.90;;;17.40;99.90;;;;;;5069084;28;20092;-82
2022/10/05 08:37:13;;;;;;;1999.90;999.90;;;17.50;99.90;;;;;;5033274;28;20061;-80
2022/10/05 08:39:48;;;;;;;1999.90;999.90;;;17.50;99.90;;;;;;5068459;28;20055;-81
2022/10/05 08:42:38;;;;;;;1999.90;999.90;;;17.60;99.90;;;;;;5050926;28;20095;-82
2022/10/05 08:45:31;;;;;;;1999.90;999.90;;;17.80;99.90;;;;;;5068648;28;20045;-81
2022/10/05 08:48:23;;;;;;;1999.90;999.90;;;18.00;99.90;;;;;;5068812;28;20494;-81
2022/10/05 08:51:04;;;;;;;1999.90;999.90;;;18.00;99.90;;;;;;5068490;28;20049;-81
2022/10/05 08:53:47;;;;;;;1999.90;999.90;;;18.00;99.90;;;;;;5035053;28;20080;-85
2022/10/05 08:56:13;;;;;;;1999.90;999.90;;;18.00;99.90;;;;;;5035868;28;20049;-82
2022/10/05 08:59:16;;;;;;;1999.90;999.90;;;18.00;99.90;;;;;;5068015;28;20059;-81
2022/10/05 09:02:07;;;;;;;1999.90;999.90;;;18.80;99.90;;;;;;5068282;28;20045;-80
2022/10/05 09:04:46;;;;;;;1999.90;999.90;;;18.20;99.90;;;;;;5052436;28;20057;-81
2022/10/05 09:07:26;;;;;;;1999.90;999.90;;;18.30;99.90;;;;;;5068695;28;20468;-82
2022/10/05 09:10:03;;;;;;;1999.90;999.90;;;18.40;99.90;;;;;;5068333;28;20037;-83
2022/10/05 09:13:00;;;;;;;1999.90;999.90;;;18.20;99.90;;;;;;5067347;28;20512;-81
2022/10/05 09:15:25;;;;;;;1999.90;999.90;;;18.20;99.90;;;;;;5068463;28;20067;-81
2022/10/05 09:18:22;;;;;;;1999.90;999.90;;;18.30;99.90;;;;;;5052260;28;20496;-81
2022/10/05 09:20:48;;;;;;;1999.90;999.90;;;18.30;99.90;;;;;;5067948;28;20523;-81
2022/10/05 09:23:41;;;;;;;1999.90;999.90;;;18.20;99.90;;;;;;5052846;28;20045;-81
2022/10/05 09:26:27;;;;;;;1999.90;999.90;;;18.30;99.90;;;;;;5034751;28;20110;-82
2022/10/05 09:29:14;;;;;;;1999.90;999.90;;;18.30;99.90;;;;;;5033808;28;20483;-80
2022/10/05 09:31:50;;;;;;;1999.90;999.90;;;18.30;99.90;;;;;;5084715;28;20049;-82
2022/10/05 09:34:45;;;;;;;1999.90;999.90;;;18.20;99.90;;;;;;5034839;28;20048;-81
2022/10/05 09:37:10;;;;;;;1999.90;999.90;;;18.20;99.90;;;;;;5034175;28;20493;-81
2022/10/05 09:40:06;;;;;;;1999.90;999.90;;;18.00;99.90;;;;;;5067898;28;20128;-82
2022/10/05 09:43:03;;;;;;;1999.90;999.90;;;17.90;99.90;;;;;;5034513;28;20044;-81
2022/10/05 09:45:57;;;;;;;1999.90;999.90;;;17.90;99.90;;;;;;5052361;28;20049;-80
2022/10/05 09:48:50;;;;;;;1999.90;999.90;;;17.90;99.90;;;;;;5052208;28;20540;-81
2022/10/05 09:51:34;;;;;;;1999.90;999.90;;;17.90;99.90;;;;;;5068027;28;20056;-82
2022/10/05 09:54:27;;;;;;;1999.90;999.90;;;17.90;99.90;;;;;;5067410;28;20041;-80
2022/10/05 09:57:23;;;;;;;1999.90;999.90;;;17.80;99.90;;;;;;5033967;28;20053;-81
2022/10/05 10:00:14;;;;;;;1999.90;999.90;;;17.90;99.90;;;;;;5067616;28;20087;-82
2022/10/05 10:02:52;;;;;;;1999.90;999.90;;;17.90;99.90;;;;;;5033696;28;20131;-79
2022/10/05 10:05:47;;;;;;;1999.90;999.90;;;18.00;99.90;;;;;;5052428;28;20045;-80
2022/10/05 10:08:33;;;;;;;1999.90;999.90;;;18.00;99.90;;;;;;5052266;28;20049;-81
2022/10/05 10:11:02;;;;;;;1999.90;999.90;;;17.90;99.90;;;;;;5067921;28;20056;-81
2022/10/05 10:14:19;;;;;;;1999.90;999.90;;;17.80;99.90;;;;;;5052842;28;20104;-82
2022/10/05 10:17:01;;;;;;;1999.90;999.90;;;17.80;99.90;;;;;;4982136;28;20061;-82
2022/10/05 10:19:45;;;;;;;1999.90;999.90;;;17.70;99.90;;;;;;5015129;28;20490;-82
2022/10/05 10:22:17;;;;;;;1999.90;999.90;;;17.70;99.90;;;;;;5015489;28;20052;-82
2022/10/05 10:25:18;;;;;;;1999.90;999.90;;;17.70;99.90;;;;;;5015152;28;20100;-80
2022/10/05 10:28:12;;;;;;;1999.90;999.90;;;17.70;99.90;;;;;;5013802;28;20054;-83
2022/10/05 10:30:58;;;;;;;1999.90;999.90;;;17.60;99.90;;;;;;5016485;28;20049;-80
2022/10/05 10:34:02;;;;;;;1999.90;999.90;;;17.70;99.90;;;;;;5014573;28;20040;-84
2022/10/05 10:36:50;;;;;;;1999.90;999.90;;;17.70;99.90;;;;;;4994911;28;20057;-82
2022/10/05 10:39:19;;;;;;;1999.90;999.90;;;17.60;99.90;;;;;;5031051;28;20548;-82
2022/10/05 10:42:39;;;;;;;1999.90;999.90;;;17.50;99.90;;;;;;5014564;28;20041;-84
2022/10/05 10:45:28;;;;;;;1999.90;999.90;;;17.30;99.90;;;;;;4984065;28;20147;-84
2022/10/05 10:48:05;;;;;;;1999.90;999.90;;;17.20;99.90;;;;;;5014076;28;20123;-85
2022/10/05 10:51:06;;;;;;;1999.90;999.90;;;17.30;99.90;;;;;;4998083;28;20116;-86
2022/10/05 10:53:38;;;;;;;1999.90;999.90;;;17.20;99.90;;;;;;4942035;28;20078;-84
2022/10/05 10:56:35;;;;;;;1999.90;999.90;;;17.30;99.90;;;;;;4987978;28;20093;-83
2022/10/05 10:59:34;;;;;;;1999.90;999.90;;;17.20;99.90;;;;;;4997319;28;20057;-81
2022/10/05 11:02:02;;;;;;;1999.90;999.90;;;17.40;99.90;;;;;;5014248;28;20049;-81
2022/10/05 11:04:40;;;;;;;1999.90;999.90;;;17.40;99.90;;;;;;5014762;28;20045;-80
2022/10/05 11:07:38;;;;;;;1999.90;999.90;;;17.60;99.90;;;;;;5013942;28;20085;-82
2022/10/05 11:10:25;;;;;;;1999.90;999.90;;;17.60;99.90;;;;;;5014070;28;20450;-83
2022/10/05 11:13:15;;;;;;;1999.90;999.90;;;17.60;99.90;;;;;;4997142;28;20101;-82
2022/10/05 11:16:11;;;;;;;1999.90;999.90;;;17.70;99.90;;;;;;5015231;28;20057;-84
2022/10/05 11:18:52;;;;;;;1999.90;999.90;;;17.70;99.90;;;;;;4997569;28;20054;-85
2022/10/05 11:21:36;;;;;;;1999.90;999.90;;;17.70;99.90;;;;;;5030529;28;20111;-83
2022/10/05 11:24:13;;;;;;;1999.90;999.90;;;17.80;99.90;;;;;;5012374;28;20065;-85
2022/10/05 11:27:07;;;;;;;1999.90;999.90;;;17.80;99.90;;;;;;4997108;28;20038;-85
2022/10/05 11:29:32;;;;;;;1999.90;999.90;;;17.80;99.90;;;;;;5030332;28;20049;-86
2022/10/05 11:32:33;;;;;;;1999.90;999.90;;;17.80;99.90;;;;;;5013544;28;20050;-84
2022/10/05 11:35:30;;;;;;;1999.90;999.90;;;17.90;99.90;;;;;;4941118;28;20446;-83
2022/10/05 11:38:08;;;;;;;1999.90;999.90;;;17.80;99.90;;;;;;5042273;28;20046;-88
2022/10/05 11:41:01;;;;;;;1999.90;999.90;;;17.90;99.90;;;;;;5018224;28;20078;-85
2022/10/05 11:43:51;;;;;;;1999.90;999.90;;;18.00;99.90;;;;;;5014198;28;20093;-83
2022/10/05 11:46:32;;;;;;;1999.90;999.90;;;18.00;99.90;;;;;;5019089;28;20042;-82
2022/10/05 11:49:26;;;;;;;1999.90;999.90;;;18.00;99.90;;;;;;5015329;28;20053;-85
2022/10/05 11:52:23;;;;;;;1601.35;756.28;;;18.00;99.90;;;;;;5007317;28;20053;-85
2022/10/05 11:54:56;;;;;;;1999.90;999.90;;;17.80;99.90;;;;;;5014539;28;20049;-85
2022/10/05 11:57:41;;;;;;;1999.90;999.90;;;18.00;99.90;;;;;;4995950;28;20042;-85
2022/10/05 12:00:39;;;;;;;1999.90;999.90;;;17.90;99.90;;;;;;4995430;28;20081;-85
2022/10/05 12:03:26;;;;;;;1729.07;768.47;;;17.90;99.90;;;;;;5007746;28;20084;-82
2022/10/05 12:06:23;;;;;;;1999.90;999.90;;;17.30;99.90;;;;;;5012457;28;20509;-87
2022/10/05 12:09:13;;;;;;;1999.90;999.90;;;17.70;99.90;;;;;;5012607;28;20049;-83
2022/10/05 12:11:48;;;;;;;1999.90;999.90;;;17.70;99.90;;;;;;5012632;28;20060;-83
2022/10/05 12:14:32;;;;;;;1999.90;999.90;;;17.60;99.90;;;;;;5011454;28;20054;-87
2022/10/05 12:17:39;;;;;;;1999.90;999.90;;;17.60;99.90;;;;;;5012792;28;20058;-83
2022/10/05 12:20:27;;;;;;;1999.90;999.90;;;16.70;99.90;;;;;;4982303;28;20502;-84
2022/10/05 12:23:05;;;;;;;1999.90;999.90;;;17.70;99.90;;;;;;4996312;28;20049;-86
2022/10/05 12:25:41;;;;;;;1999.90;999.90;;;17.70;99.90;;;;;;5013389;28;20056;-83
2022/10/05 12:28:14;;;;;;;1999.90;999.90;;;17.80;99.90;;;;;;5012444;28;20038;-85
2022/10/05 12:30:56;;;;;;;1999.90;999.90;;;17.70;99.90;;;;;;5029670;28;20144;-81
2022/10/05 12:33:55;;;;;;;1999.90;999.90;;;17.70;99.90;;;;;;5013823;28;20046;-83
2022/10/05 12:37:03;;;;;;;1999.90;999.90;;;17.70;99.90;;;;;;4995689;28;20049;-81
2022/10/05 12:39:43;;;;;;;1999.90;999.90;;;17.70;99.90;;;;;;5011272;28;20069;-82
2022/10/05 12:42:50;;;;;;;1999.90;999.90;;;17.70;99.90;;;;;;5011941;28;20080;-83
2022/10/05 12:45:33;;;;;;;1999.90;999.90;;;17.80;99.90;;;;;;4981866;28;20509;-82
2022/10/05 12:48:25;;;;;;;1999.90;999.90;;;17.90;99.90;;;;;;5012803;28;20099;-84
2022/10/05 12:51:17;;;;;;;1999.90;999.90;;;18.00;99.90;;;;;;5012652;28;20053;-82
2022/10/05 12:54:12;;;;;;;1999.90;999.90;;;18.10;99.90;;;;;;4985981;28;20060;-82
2022/10/05 12:56:59;;;;;;;1999.90;999.90;;;18.10;99.90;;;;;;5011716;28;20045;-84
2022/10/05 12:59:40;;;;;;;1999.90;999.90;;;18.10;99.90;;;;;;5012212;28;20470;-82
2022/10/05 13:02:45;;;;;;;1999.90;999.90;;;18.00;99.90;;;;;;5012209;28;20363;-82
2022/10/05 13:05:17;;;;;;;1999.90;999.90;;;18.00;99.90;;;;;;4992628;28;20094;-83
2022/10/05 13:08:36;;;;;;;1999.90;999.90;;;17.90;99.90;;;;;;4995368;28;20061;-82
2022/10/05 13:11:11;;;;;;;1999.90;999.90;;;17.90;99.90;;;;;;4998046;28;20521;-80
2022/10/05 13:14:23;;;;;;;1999.90;999.90;;;17.80;99.90;;;;;;5009929;28;20062;-80
2022/10/05 13:17:02;;;;;;;1999.90;999.90;;;17.80;99.90;;;;;;5010502;28;20045;-79
2022/10/05 13:19:43;;;;;;;1999.90;999.90;;;17.90;99.90;;;;;;4994908;28;20081;-81
2022/10/05 13:22:11;;;;;;;1999.90;999.90;;;18.00;99.90;;;;;;5011223;28;20058;-82
2022/10/05 13:24:45;;;;;;;1999.90;999.90;;;18.10;99.90;;;;;;4995288;28;20111;-83
2022/10/05 13:27:17;;;;;;;1999.90;999.90;;;18.10;99.90;;;;;;5010726;28;20513;-82